Mount Pleasant, Utah
Current Conditions -  °F | °C
As of 12:53 PM on Saturday 25 Oct 2014 (Local Time) from KPUC Reporting Station
Clear Clear  
Wind Chill: 66°   Ceiling: Unl
Heat Index: 66°   Visibility: 10mi
Dew Point: 31°   Wind: 9mph
Humidity: 27%   Direction: 130°SE
Pressure: 30.23"   Gusts: NA
Location:  39.55°N, 111.46°W
Report Text: KPUC 251853Z AUTO 13008KT 10SM CLR 19/M01 A3023 RMK AO2 SLP196 T01891006 TSNO
Loading
Personal Weather Stations






























Interactive Weather Map
Tropical Storm Tracking
New forecast layout! Learn more

10-Day Weather Forecast

Advertisements
Track Severe Weather on mobile